Huvudsida
METAR-TAF:

METAR-TAF

Flygplatser :

Juwata International Airport

Tarakan, Indonesien

latitud: 03-19-36N, longitud: 117-33-56E, höjd: 6 m

Aktuellt väderrapport

Denna rapport gjordes för 18 minuter sedan, klockan 21:00 UTC
Vind 3 kt från nord/nordväst
Temperatur 26°C
Fuktighet 94%
Tryck 1011 hPa
Sikt: 8000 m
Få moln på en höjd av 1500 ft

METAR: WAQQ 222100Z 33003KT 8000 FEW015 26/25 Q1011 NOSIG

Tid: 04:18 (21:18 UTC)

Väderprognos

Denna rapport gjordes för 4 timmar och 18 minuter sedan, klockan 17:00 UTC
Prognos gäller från 22 kl. 18 UTC till 23 kl. 06 UTC
Vind 3 kt från nord/nordost
Sikt: 8000 m
Få moln på en höjd av 1500 ft

TAF: WAQQ 221700Z 2218/2306 03003KT 8000 FEW015

Aktuella väderrapporter och prognoser från 4000 flygplatser (METAR- och TAF-rapporter).

De tillgängliga stationerna syns som gula och röda prickar på kartan.

För musen över prickarna för att se namnen på stationerna.

Klicka sedan för att få väderrapporter och prognoser.

För att ändra kartan: Klicka på de gröna knapparna med ett svart kors på för att zooma in; den gröna knappen med ett streck på för att zooma ut; eller på de gröna pilarna för angränsande kartor.


METAR-TAF: